Time;durP1;ratioP1;P1;durP2;ratioP2;P2;SDS_P1;SDS_P2;PMS_P1;PMS_P2;Temp;Humidity;BMP_temperature;BMP_pressure;BME280_temperature;BME280_humidity;BME280_pressure;Samples;Min_cycle;Max_cycle;Signal;HPM_P1;HPM_P2
2022/07/23 00:00:09;;;;;;;;;;;;;;;;;;5057522;28;1259;-66
2022/07/23 00:02:34;;;;;;;;;;;;;;;;;;5047727;28;1321;-66
2022/07/23 00:04:59;;;;;;;;;;;;;;;;;;5058913;28;1661;-66
2022/07/23 00:07:24;;;;;;;;;;;;;;;;;;5047465;28;1439;-66
2022/07/23 00:09:49;;;;;;;;;;;;;;;;;;5040946;28;1432;-66
2022/07/23 00:12:15;;;;;;;;;;;;;;;;;;5051175;28;1404;-66
2022/07/23 00:14:40;;;;;;;;;;;;;;;;;;5059457;28;1369;-66
2022/07/23 00:17:05;;;;;;;;;;;;;;;;;;5051475;28;1746;-66
2022/07/23 00:19:30;;;;;;;;;;;;;;;;;;5059112;28;1886;-65
2022/07/23 00:21:55;;;;;;;;;;;;;;;;;;5050352;28;1644;-66
2022/07/23 00:24:21;;;;;;;;;;;;;;;;;;5057363;28;1484;-65
2022/07/23 00:26:46;;;;;;;;;;;;;;;;;;5057802;28;1655;-66
2022/07/23 00:29:11;;;;;;;;;;;;;;;;;;5063737;28;1148;-65
2022/07/23 00:31:36;;;;;;;;;;;;;;;;;;5046732;28;1856;-66
2022/07/23 00:34:01;;;;;;;;;;;;;;;;;;5060603;28;1212;-66
2022/07/23 00:36:27;;;;;;;;;;;;;;;;;;5055756;28;1439;-65
2022/07/23 00:38:53;;;;;;;;;;;;;;;;;;5045219;28;1915;-66
2022/07/23 00:41:18;;;;;;;;;;;;;;;;;;5050143;28;1659;-66
2022/07/23 00:43:43;;;;;;;;;;;;;;;;;;5064245;28;1092;-66
2022/07/23 00:46:08;;;;;;;;;;;;;;;;;;5058397;28;1722;-65
2022/07/23 00:48:34;;;;;;;;;;;;;;;;;;5056004;28;1248;-65
2022/07/23 00:50:59;;;;;;;;;;;;;;;;;;5062423;28;1498;-65
2022/07/23 00:53:24;;;;;;;;;;;;;;;;;;5053993;28;1523;-66
2022/07/23 00:55:49;;;;;;;;;;;;;;;;;;5046296;28;1534;-66
2022/07/23 00:58:16;;;;;;;;;;;;;;;;;;5063166;28;1889;-65
2022/07/23 01:00:41;;;;;;;;;;;;;;;;;;5057434;28;1690;-65
2022/07/23 01:03:07;;;;;;;;;;;;;;;;;;5061212;28;1841;-65
2022/07/23 01:05:32;;;;;;;;;;;;;;;;;;5061121;28;1545;-65
2022/07/23 01:07:57;;;;;;;;;;;;;;;;;;5061177;28;1467;-65
2022/07/23 01:10:32;;;;;;;;;;;;;;;;;;5062226;28;1647;-65
2022/07/23 01:12:58;;;;;;;;;;;;;;;;;;5060457;28;1242;-66
2022/07/23 01:15:23;;;;;;;;;;;;;;;;;;5060959;28;1733;-66
2022/07/23 01:17:48;;;;;;;;;;;;;;;;;;5032721;28;1955;-66
2022/07/23 01:20:13;;;;;;;;;;;;;;;;;;5061747;28;1211;-66
2022/07/23 01:22:39;;;;;;;;;;;;;;;;;;5058047;28;1487;-66
2022/07/23 01:25:04;;;;;;;;;;;;;;;;;;5054976;28;1683;-65
2022/07/23 01:27:30;;;;;;;;;;;;;;;;;;5058566;28;1373;-66
2022/07/23 01:29:56;;;;;;;;;;;;;;;;;;5048059;28;1202;-66
2022/07/23 01:32:21;;;;;;;;;;;;;;;;;;5053419;28;1435;-65
2022/07/23 01:34:47;;;;;;;;;;;;;;;;;;5061713;28;1304;-65
2022/07/23 01:37:12;;;;;;;;;;;;;;;;;;5061165;28;1184;-65
2022/07/23 01:39:37;;;;;;;;;;;;;;;;;;5061383;28;1898;-65
2022/07/23 01:42:02;;;;;;;;;;;;;;;;;;5059638;28;1659;-65
2022/07/23 01:44:27;;;;;;;;;;;;;;;;;;5062947;28;1202;-65
2022/07/23 01:46:53;;;;;;;;;;;;;;;;;;5055207;28;1555;-65
2022/07/23 01:49:18;;;;;;;;;;;;;;;;;;5049909;28;1848;-65
2022/07/23 01:51:59;;;;;;;;;;;;;;;;;;5044225;28;1432;-65
2022/07/23 01:54:24;;;;;;;;;;;;;;;;;;5059264;28;1361;-65
2022/07/23 01:56:49;;;;;;;;;;;;;;;;;;5057791;28;1697;-65
2022/07/23 01:59:15;;;;;;;;;;;;;;;;;;5057793;28;1894;-65
2022/07/23 02:01:40;;;;;;;;;;;;;;;;;;5053310;28;1385;-66
2022/07/23 02:04:05;;;;;;;;;;;;;;;;;;5054644;28;1556;-66
2022/07/23 02:06:30;;;;;;;;;;;;;;;;;;5051898;28;1389;-66
2022/07/23 02:08:55;;;;;;;;;;;;;;;;;;5057782;28;1194;-66
2022/07/23 02:11:20;;;;;;;;;;;;;;;;;;5044811;28;1475;-65
2022/07/23 02:13:45;;;;;;;;;;;;;;;;;;5053384;28;1161;-66
2022/07/23 02:16:11;;;;;;;;;;;;;;;;;;5054998;28;1558;-66
2022/07/23 02:18:36;;;;;;;;;;;;;;;;;;5061494;28;1957;-66
2022/07/23 02:21:01;;;;;;;;;;;;;;;;;;5054084;28;1506;-66
2022/07/23 02:23:26;;;;;;;;;;;;;;;;;;5051407;28;1448;-66
2022/07/23 02:25:51;;;;;;;;;;;;;;;;;;5043490;28;1396;-66
2022/07/23 02:28:17;;;;;;;;;;;;;;;;;;5050362;28;1255;-65
2022/07/23 02:30:42;;;;;;;;;;;;;;;;;;5052052;28;1480;-66
2022/07/23 02:33:07;;;;;;;;;;;;;;;;;;5061046;28;1077;-66
2022/07/23 02:35:32;;;;;;;;;;;;;;;;;;5052305;28;1494;-65
2022/07/23 02:37:57;;;;;;;;;;;;;;;;;;5059515;28;1894;-66
2022/07/23 02:40:22;;;;;;;;;;;;;;;;;;5061034;28;1076;-66
2022/07/23 02:42:48;;;;;;;;;;;;;;;;;;5050110;28;1487;-65
2022/07/23 02:45:13;;;;;;;;;;;;;;;;;;5059767;28;1444;-66
2022/07/23 02:47:38;;;;;;;;;;;;;;;;;;5056376;28;1499;-66
2022/07/23 02:50:05;;;;;;;;;;;;;;;;;;5059153;28;1428;-65
2022/07/23 02:52:30;;;;;;;;;;;;;;;;;;5055118;28;1480;-65
2022/07/23 02:54:55;;;;;;;;;;;;;;;;;;5060477;28;922;-65
2022/07/23 02:57:20;;;;;;;;;;;;;;;;;;5048593;28;1484;-65
2022/07/23 02:59:45;;;;;;;;;;;;;;;;;;5057993;28;1894;-65
2022/07/23 03:02:10;;;;;;;;;;;;;;;;;;5055053;28;1686;-65
2022/07/23 03:04:36;;;;;;;;;;;;;;;;;;5061722;28;1076;-65
2022/07/23 03:07:01;;;;;;;;;;;;;;;;;;5056251;28;1503;-65
2022/07/23 03:09:26;;;;;;;;;;;;;;;;;;5040599;28;788;-66
2022/07/23 03:11:51;;;;;;;;;;;;;;;;;;5041578;28;1476;-66
2022/07/23 03:14:16;;;;;;;;;;;;;;;;;;5054959;28;1683;-66
2022/07/23 03:16:42;;;;;;;;;;;;;;;;;;5055525;28;1401;-66
2022/07/23 03:19:07;;;;;;;;;;;;;;;;;;5056067;28;1910;-66
2022/07/23 03:21:33;;;;;;;;;;;;;;;;;;5048190;28;1573;-66
2022/07/23 03:23:59;;;;;;;;;;;;;;;;;;5043844;28;1467;-67
2022/07/23 03:26:25;;;;;;;;;;;;;;;;;;5041298;28;1409;-66
2022/07/23 03:28:50;;;;;;;;;;;;;;;;;;5056482;28;1136;-66
2022/07/23 03:31:15;;;;;;;;;;;;;;;;;;5054287;28;1671;-67
2022/07/23 03:33:41;;;;;;;;;;;;;;;;;;5061103;28;1147;-66
2022/07/23 03:36:06;;;;;;;;;;;;;;;;;;5060053;28;1424;-65
2022/07/23 03:38:31;;;;;;;;;;;;;;;;;;5055792;28;1965;-65
2022/07/23 03:40:57;;;;;;;;;;;;;;;;;;5040458;28;1358;-65
2022/07/23 03:43:24;;;;;;;;;;;;;;;;;;5060165;28;1409;-65
2022/07/23 03:45:49;;;;;;;;;;;;;;;;;;5053165;28;1496;-66
2022/07/23 03:48:14;;;;;;;;;;;;;;;;;;5060183;28;1219;-66
2022/07/23 03:50:39;;;;;;;;;;;;;;;;;;5060258;28;1478;-66
2022/07/23 03:53:04;;;;;;;;;;;;;;;;;;5041683;28;1444;-66
2022/07/23 03:55:30;;;;;;;;;;;;;;;;;;5047073;28;1715;-66
2022/07/23 03:57:55;;;;;;;;;;;;;;;;;;5058444;28;1906;-66
2022/07/23 04:00:20;;;;;;;;;;;;;;;;;;5056475;28;1754;-66
2022/07/23 04:02:45;;;;;;;;;;;;;;;;;;5050477;28;1210;-66
2022/07/23 04:05:10;;;;;;;;;;;;;;;;;;5061111;28;1171;-65
2022/07/23 04:07:36;;;;;;;;;;;;;;;;;;5059392;28;1553;-65
2022/07/23 04:10:01;;;;;;;;;;;;;;;;;;5059188;28;1898;-65
2022/07/23 04:12:26;;;;;;;;;;;;;;;;;;5049289;28;1362;-65
2022/07/23 04:14:51;;;;;;;;;;;;;;;;;;5049841;28;1156;-65
2022/07/23 04:17:16;;;;;;;;;;;;;;;;;;5049954;28;1682;-65
2022/07/23 04:19:43;;;;;;;;;;;;;;;;;;5053737;28;1981;-65
2022/07/23 04:22:09;;;;;;;;;;;;;;;;;;5059347;28;1131;-65
2022/07/23 04:24:34;;;;;;;;;;;;;;;;;;5041335;28;1538;-66
2022/07/23 04:27:00;;;;;;;;;;;;;;;;;;5050988;28;1723;-65
2022/07/23 04:29:25;;;;;;;;;;;;;;;;;;5050926;28;1217;-66
2022/07/23 04:31:51;;;;;;;;;;;;;;;;;;5049245;28;1727;-66
2022/07/23 04:34:16;;;;;;;;;;;;;;;;;;5060752;28;1210;-66
2022/07/23 04:36:41;;;;;;;;;;;;;;;;;;5050333;28;1467;-66
2022/07/23 04:39:06;;;;;;;;;;;;;;;;;;5040652;28;1969;-66
2022/07/23 04:41:32;;;;;;;;;;;;;;;;;;5055639;28;1589;-66
2022/07/23 04:43:57;;;;;;;;;;;;;;;;;;5060425;28;1132;-65
2022/07/23 04:46:22;;;;;;;;;;;;;;;;;;5053611;28;1733;-66
2022/07/23 04:48:47;;;;;;;;;;;;;;;;;;5060344;28;1128;-67
2022/07/23 04:51:12;;;;;;;;;;;;;;;;;;5052782;28;1130;-66
2022/07/23 04:53:38;;;;;;;;;;;;;;;;;;5049839;28;1290;-66
2022/07/23 04:56:03;;;;;;;;;;;;;;;;;;5051857;28;1400;-66
2022/07/23 04:58:28;;;;;;;;;;;;;;;;;;5050828;28;1898;-67
2022/07/23 05:00:54;;;;;;;;;;;;;;;;;;5048518;28;1341;-66
2022/07/23 05:03:19;;;;;;;;;;;;;;;;;;5054172;28;1215;-66
2022/07/23 05:05:44;;;;;;;;;;;;;;;;;;5029928;28;1429;-66
2022/07/23 05:08:09;;;;;;;;;;;;;;;;;;5046448;28;1524;-64
2022/07/23 05:10:34;;;;;;;;;;;;;;;;;;5057888;28;1503;-65
2022/07/23 05:13:00;;;;;;;;;;;;;;;;;;5039642;28;1531;-64
2022/07/23 05:15:25;;;;;;;;;;;;;;;;;;5063337;28;1009;-65
2022/07/23 05:17:50;;;;;;;;;;;;;;;;;;5062603;28;1968;-65
2022/07/23 05:20:15;;;;;;;;;;;;;;;;;;5063466;28;1005;-65
2022/07/23 05:22:41;;;;;;;;;;;;;;;;;;5057274;28;1538;-64
2022/07/23 05:25:06;;;;;;;;;;;;;;;;;;5043592;28;866;-64
2022/07/23 05:27:31;;;;;;;;;;;;;;;;;;5042627;28;1527;-65
2022/07/23 05:29:57;;;;;;;;;;;;;;;;;;5043843;28;815;-65
2022/07/23 05:32:22;;;;;;;;;;;;;;;;;;5055752;28;1539;-65
2022/07/23 05:34:47;;;;;;;;;;;;;;;;;;5063402;28;1155;-65
2022/07/23 05:37:12;;;;;;;;;;;;;;;;;;5060428;28;1402;-68
2022/07/23 05:39:38;;;;;;;;;;;;;;;;;;5061015;28;1890;-68
2022/07/23 05:42:03;;;;;;;;;;;;;;;;;;5060125;28;1370;-68
2022/07/23 05:44:28;;;;;;;;;;;;;;;;;;5063005;28;1040;-68
2022/07/23 05:46:53;;;;;;;;;;;;;;;;;;5061586;28;1255;-68
2022/07/23 05:49:18;;;;;;;;;;;;;;;;;;5062986;28;811;-67
2022/07/23 05:51:44;;;;;;;;;;;;;;;;;;5061497;28;1445;-68
2022/07/23 05:54:09;;;;;;;;;;;;;;;;;;5047960;28;1731;-67
2022/07/23 05:56:34;;;;;;;;;;;;;;;;;;5041910;28;1425;-67
2022/07/23 05:58:59;;;;;;;;;;;;;;;;;;5044642;28;1973;-67
2022/07/23 06:01:25;;;;;;;;;;;;;;;;;;5062745;28;1199;-67
2022/07/23 06:03:50;;;;;;;;;;;;;;;;;;5062076;28;1044;-67
2022/07/23 06:06:15;;;;;;;;;;;;;;;;;;5060653;28;1514;-67
2022/07/23 06:08:40;;;;;;;;;;;;;;;;;;5060706;28;1503;-67
2022/07/23 06:11:05;;;;;;;;;;;;;;;;;;5057418;28;1514;-67
2022/07/23 06:13:30;;;;;;;;;;;;;;;;;;5060866;28;1491;-67
2022/07/23 06:15:56;;;;;;;;;;;;;;;;;;5060649;28;1472;-67
2022/07/23 06:18:21;;;;;;;;;;;;;;;;;;5061574;28;1978;-70
2022/07/23 06:20:46;;;;;;;;;;;;;;;;;;5052029;28;1293;-69
2022/07/23 06:23:12;;;;;;;;;;;;;;;;;;5060286;28;1299;-73
2022/07/23 06:25:37;;;;;;;;;;;;;;;;;;5035738;28;1469;-70
2022/07/23 06:28:03;;;;;;;;;;;;;;;;;;5041945;28;1456;-69
2022/07/23 06:30:28;;;;;;;;;;;;;;;;;;5054970;28;1487;-68
2022/07/23 06:32:53;;;;;;;;;;;;;;;;;;5056988;28;1369;-69
2022/07/23 06:35:18;;;;;;;;;;;;;;;;;;5056740;28;1633;-69
2022/07/23 06:37:43;;;;;;;;;;;;;;;;;;5060247;28;1967;-69
2022/07/23 06:40:09;;;;;;;;;;;;;;;;;;5056644;28;1448;-69
2022/07/23 06:42:36;;;;;;;;;;;;;;;;;;5045106;28;1534;-69
2022/07/23 06:45:02;;;;;;;;;;;;;;;;;;5042228;28;834;-69
2022/07/23 06:47:27;;;;;;;;;;;;;;;;;;5041553;28;1511;-69
2022/07/23 06:49:52;;;;;;;;;;;;;;;;;;5041734;28;1491;-69
2022/07/23 06:52:17;;;;;;;;;;;;;;;;;;5060005;28;1520;-69
2022/07/23 06:54:42;;;;;;;;;;;;;;;;;;5042076;28;1652;-69
2022/07/23 06:57:07;;;;;;;;;;;;;;;;;;5041218;28;1397;-69
2022/07/23 06:59:36;;;;;;;;;;;;;;;;;;5041892;28;1894;-69
2022/07/23 07:02:01;;;;;;;;;;;;;;;;;;5041875;28;902;-69
2022/07/23 07:04:26;;;;;;;;;;;;;;;;;;5024031;28;1532;-69
2022/07/23 07:06:51;;;;;;;;;;;;;;;;;;5054141;28;1358;-69
2022/07/23 07:09:17;;;;;;;;;;;;;;;;;;5057845;28;1624;-69
2022/07/23 07:11:43;;;;;;;;;;;;;;;;;;5042137;28;1321;-69
2022/07/23 07:14:08;;;;;;;;;;;;;;;;;;5041791;28;969;-68
2022/07/23 07:16:33;;;;;;;;;;;;;;;;;;5041038;28;1187;-69
2022/07/23 07:18:58;;;;;;;;;;;;;;;;;;5043055;28;1898;-69
2022/07/23 07:21:23;;;;;;;;;;;;;;;;;;5055470;28;1423;-69
2022/07/23 07:23:49;;;;;;;;;;;;;;;;;;5050274;28;1436;-69
2022/07/23 07:26:14;;;;;;;;;;;;;;;;;;5057997;28;1365;-69
2022/07/23 07:28:39;;;;;;;;;;;;;;;;;;5060204;28;997;-69
2022/07/23 07:31:04;;;;;;;;;;;;;;;;;;5060300;28;879;-69
2022/07/23 07:33:29;;;;;;;;;;;;;;;;;;5050589;28;1361;-69
2022/07/23 07:35:55;;;;;;;;;;;;;;;;;;5058783;28;1433;-69
2022/07/23 07:38:20;;;;;;;;;;;;;;;;;;5060292;28;1975;-69
2022/07/23 07:40:45;;;;;;;;;;;;;;;;;;5058393;28;1586;-68
2022/07/23 07:43:10;;;;;;;;;;;;;;;;;;5078750;28;1291;-68
2022/07/23 07:45:35;;;;;;;;;;;;;;;;;;5060581;28;1393;-68
2022/07/23 07:48:01;;;;;;;;;;;;;;;;;;5068188;28;1431;-69
2022/07/23 07:50:26;;;;;;;;;;;;;;;;;;5069501;28;1202;-69
2022/07/23 07:52:51;;;;;;;;;;;;;;;;;;5054573;28;1471;-69
2022/07/23 07:55:16;;;;;;;;;;;;;;;;;;5060815;28;1120;-69
2022/07/23 07:57:42;;;;;;;;;;;;;;;;;;5040375;28;1475;-69
2022/07/23 08:00:08;;;;;;;;;;;;;;;;;;5039782;28;1951;-69
2022/07/23 08:02:40;;;;;;;;;;;;;;;;;;5051621;28;1500;-68
2022/07/23 08:05:05;;;;;;;;;;;;;;;;;;5061137;28;849;-68
2022/07/23 08:07:31;;;;;;;;;;;;;;;;;;5050228;28;1515;-68
2022/07/23 08:09:56;;;;;;;;;;;;;;;;;;5041038;28;1460;-68
2022/07/23 08:12:21;;;;;;;;;;;;;;;;;;5053878;28;1540;-68
2022/07/23 08:14:46;;;;;;;;;;;;;;;;;;5061006;28;798;-69
2022/07/23 08:17:11;;;;;;;;;;;;;;;;;;5041542;28;1476;-69
2022/07/23 08:19:37;;;;;;;;;;;;;;;;;;5056209;28;1959;-68
2022/07/23 08:22:02;;;;;;;;;;;;;;;;;;5055391;28;1452;-68
2022/07/23 08:24:27;;;;;;;;;;;;;;;;;;5051243;28;1488;-69
2022/07/23 08:26:53;;;;;;;;;;;;;;;;;;5048840;28;1463;-68
2022/07/23 08:29:18;;;;;;;;;;;;;;;;;;5052342;28;1408;-69
2022/07/23 08:31:45;;;;;;;;;;;;;;;;;;5073354;28;1363;-69
2022/07/23 08:34:10;;;;;;;;;;;;;;;;;;5060981;28;862;-69
2022/07/23 08:36:36;;;;;;;;;;;;;;;;;;5031089;28;1361;-69
2022/07/23 08:39:03;;;;;;;;;;;;;;;;;;5045672;28;1898;-69
2022/07/23 08:41:28;;;;;;;;;;;;;;;;;;5058283;28;1503;-69
2022/07/23 08:43:53;;;;;;;;;;;;;;;;;;5050849;28;1294;-70
2022/07/23 08:46:19;;;;;;;;;;;;;;;;;;5048990;28;1892;-69
2022/07/23 08:48:46;;;;;;;;;;;;;;;;;;5057940;28;1121;-69
2022/07/23 08:51:12;;;;;;;;;;;;;;;;;;5055133;28;1304;-69
2022/07/23 08:53:38;;;;;;;;;;;;;;;;;;5056512;28;1605;-68
2022/07/23 08:56:04;;;;;;;;;;;;;;;;;;5063733;28;1207;-68
2022/07/23 08:58:29;;;;;;;;;;;;;;;;;;5048679;28;1977;-67
2022/07/23 09:00:58;;;;;;;;;;;;;;;;;;5051718;28;1436;-65
2022/07/23 09:03:24;;;;;;;;;;;;;;;;;;5056137;28;1479;-68
2022/07/23 09:05:51;;;;;;;;;;;;;;;;;;5058450;28;1489;-67
2022/07/23 09:08:18;;;;;;;;;;;;;;;;;;5061299;28;1525;-68
2022/07/23 09:10:44;;;;;;;;;;;;;;;;;;5046209;28;1135;-68
2022/07/23 09:13:28;;;;;;;;;;;;;;;;;;5049542;28;1558;-69
2022/07/23 09:15:54;;;;;;;;;;;;;;;;;;5064182;28;1128;-69
2022/07/23 09:18:27;;;;;;;;;;;;;;;;;;5063307;28;1898;-69
2022/07/23 09:21:04;;;;;;;;;;;;;;;;;;5058354;28;1718;-70
2022/07/23 09:24:00;;;;;;;;;;;;;;;;;;5058393;28;1718;-70
2022/07/23 09:26:33;;;;;;;;;;;;;;;;;;5043848;28;1331;-68
2022/07/23 09:29:01;;;;;;;;;;;;;;;;;;5062692;28;1852;-67
2022/07/23 09:31:32;;;;;;;;;;;;;;;;;;5058671;28;1609;-63
2022/07/23 09:34:10;;;;;;;;;;;;;;;;;;5059564;28;1566;-67
2022/07/23 09:36:36;;;;;;;;;;;;;;;;;;5057023;28;1586;-70
2022/07/23 09:39:01;;;;;;;;;;;;;;;;;;5055604;28;1906;-70
2022/07/23 09:41:33;;;;;;;;;;;;;;;;;;5058072;28;1613;-71
2022/07/23 09:44:06;;;;;;;;;;;;;;;;;;5050105;28;1868;-74
2022/07/23 09:46:31;;;;;;;;;;;;;;;;;;5050461;28;1904;-68
2022/07/23 09:48:56;;;;;;;;;;;;;;;;;;5062458;28;1575;-68
2022/07/23 09:51:31;;;;;;;;;;;;;;;;;;5046304;28;1891;-70
2022/07/23 09:53:57;;;;;;;;;;;;;;;;;;5038524;28;1614;-69
2022/07/23 09:56:23;;;;;;;;;;;;;;;;;;5053337;28;1868;-69
2022/07/23 09:58:50;;;;;;;;;;;;;;;;;;5062837;28;1906;-70
2022/07/23 10:01:16;;;;;;;;;;;;;;;;;;5055859;28;1650;-70
2022/07/23 10:03:41;;;;;;;;;;;;;;;;;;5060377;28;1896;-70
2022/07/23 10:06:08;;;;;;;;;;;;;;;;;;5056027;28;1597;-72
2022/07/23 10:08:33;;;;;;;;;;;;;;;;;;5030458;28;1564;-71
2022/07/23 10:10:59;;;;;;;;;;;;;;;;;;5057458;28;1605;-70
2022/07/23 10:15:59;;;;;;;;;;;;;;;;;;5052865;28;1800;-70
2022/07/23 10:18:24;;;;;;;;;;;;;;;;;;5058756;28;1914;-69
2022/07/23 10:20:50;;;;;;;;;;;;;;;;;;5058795;28;1531;-68
2022/07/23 10:23:33;;;;;;;;;;;;;;;;;;5050598;28;1844;-69
2022/07/23 10:26:03;;;;;;;;;;;;;;;;;;5057935;28;1563;-69
2022/07/23 10:28:34;;;;;;;;;;;;;;;;;;5048021;28;1222;-69
2022/07/23 10:31:26;;;;;;;;;;;;;;;;;;5045283;28;1829;-69
2022/07/23 10:34:06;;;;;;;;;;;;;;;;;;5062645;28;1212;-69
2022/07/23 10:36:31;;;;;;;;;;;;;;;;;;5056862;28;1559;-70
2022/07/23 10:39:03;;;;;;;;;;;;;;;;;;5057856;28;1906;-70
2022/07/23 10:41:41;;;;;;;;;;;;;;;;;;5054918;28;1693;-70
2022/07/23 10:44:16;;;;;;;;;;;;;;;;;;5061709;28;1403;-74
2022/07/23 10:49:52;;;;;;;;;;;;;;;;;;5042747;28;718;-71
2022/07/23 10:52:18;;;;;;;;;;;;;;;;;;5053474;28;1573;-72
2022/07/23 10:54:51;;;;;;;;;;;;;;;;;;5048506;28;1531;-72
2022/07/23 10:57:17;;;;;;;;;;;;;;;;;;5058370;28;1522;-72
2022/07/23 11:00:01;;;;;;;;;;;;;;;;;;5062298;28;1902;-72
2022/07/23 11:02:28;;;;;;;;;;;;;;;;;;5055547;28;1451;-72
2022/07/23 11:04:54;;;;;;;;;;;;;;;;;;5042236;28;1072;-72
2022/07/23 11:07:19;;;;;;;;;;;;;;;;;;5048762;28;1523;-72
2022/07/23 11:09:46;;;;;;;;;;;;;;;;;;5051360;28;1511;-72
2022/07/23 11:12:20;;;;;;;;;;;;;;;;;;5049319;28;1404;-71
2022/07/23 11:14:57;;;;;;;;;;;;;;;;;;5043337;28;1459;-75
2022/07/23 11:17:23;;;;;;;;;;;;;;;;;;5053502;28;1282;-71
2022/07/23 11:20:07;;;;;;;;;;;;;;;;;;5042462;28;1959;-71
2022/07/23 11:22:36;;;;;;;;;;;;;;;;;;5046434;28;1412;-71
2022/07/23 11:25:01;;;;;;;;;;;;;;;;;;5061842;28;1688;-71
2022/07/23 11:27:39;;;;;;;;;;;;;;;;;;5057307;28;1350;-71
2022/07/23 11:30:04;;;;;;;;;;;;;;;;;;5058562;28;1362;-71
2022/07/23 11:32:33;;;;;;;;;;;;;;;;;;5041978;28;1356;-71
2022/07/23 11:34:58;;;;;;;;;;;;;;;;;;5041776;28;827;-71
2022/07/23 11:37:29;;;;;;;;;;;;;;;;;;5045759;28;1425;-71
2022/07/23 11:39:56;;;;;;;;;;;;;;;;;;5052606;28;1960;-72
2022/07/23 11:42:23;;;;;;;;;;;;;;;;;;5060702;28;1476;-71
2022/07/23 11:44:48;;;;;;;;;;;;;;;;;;5061659;28;846;-71
2022/07/23 11:47:13;;;;;;;;;;;;;;;;;;5060981;28;1298;-71
2022/07/23 11:49:51;;;;;;;;;;;;;;;;;;5060893;28;1574;-71
2022/07/23 11:52:16;;;;;;;;;;;;;;;;;;5058114;28;1428;-71
2022/07/23 11:54:49;;;;;;;;;;;;;;;;;;5061206;28;1487;-72
2022/07/23 11:57:14;;;;;;;;;;;;;;;;;;5047233;28;1495;-71
2022/07/23 11:59:40;;;;;;;;;;;;;;;;;;5050524;28;1897;-72
2022/07/23 12:02:05;;;;;;;;;;;;;;;;;;5060621;28;1144;-71
2022/07/23 12:04:40;;;;;;;;;;;;;;;;;;5042681;28;1510;-71
2022/07/23 12:07:22;;;;;;;;;;;;;;;;;;5050507;28;1452;-71
2022/07/23 12:09:47;;;;;;;;;;;;;;;;;;5059713;28;1311;-71
2022/07/23 12:12:12;;;;;;;;;;;;;;;;;;5049147;28;1492;-71
2022/07/23 12:14:46;;;;;;;;;;;;;;;;;;5041648;28;1182;-72
2022/07/23 12:17:12;;;;;;;;;;;;;;;;;;5046854;28;1519;-71
2022/07/23 12:19:37;;;;;;;;;;;;;;;;;;5058417;28;1973;-72
2022/07/23 12:22:02;;;;;;;;;;;;;;;;;;5056593;28;1239;-71
2022/07/23 12:24:28;;;;;;;;;;;;;;;;;;5048213;28;1420;-71
2022/07/23 12:27:11;;;;;;;;;;;;;;;;;;5044133;28;1548;-72
2022/07/23 12:29:37;;;;;;;;;;;;;;;;;;5044917;28;814;-71
2022/07/23 12:32:02;;;;;;;;;;;;;;;;;;5047634;28;1515;-72
2022/07/23 12:34:27;;;;;;;;;;;;;;;;;;5059114;28;1325;-72
2022/07/23 12:36:53;;;;;;;;;;;;;;;;;;5057132;28;1262;-71
2022/07/23 12:39:31;;;;;;;;;;;;;;;;;;5045048;28;1965;-72
2022/07/23 12:41:56;;;;;;;;;;;;;;;;;;5063929;28;1444;-72
2022/07/23 12:44:21;;;;;;;;;;;;;;;;;;5064635;28;799;-72
2022/07/23 12:46:51;;;;;;;;;;;;;;;;;;5063497;28;1432;-72
2022/07/23 12:49:26;;;;;;;;;;;;;;;;;;5064670;28;736;-72
2022/07/23 12:51:52;;;;;;;;;;;;;;;;;;5051431;28;1427;-71
2022/07/23 12:54:17;;;;;;;;;;;;;;;;;;5044443;28;1484;-72
2022/07/23 12:56:45;;;;;;;;;;;;;;;;;;5043836;28;1495;-72
2022/07/23 12:59:13;;;;;;;;;;;;;;;;;;5044083;28;1955;-72
2022/07/23 13:01:39;;;;;;;;;;;;;;;;;;5048199;28;1522;-71
2022/07/23 13:04:06;;;;;;;;;;;;;;;;;;5054222;28;1835;-72
2022/07/23 13:06:50;;;;;;;;;;;;;;;;;;5057448;28;1349;-72
2022/07/23 13:09:21;;;;;;;;;;;;;;;;;;5050598;28;1511;-72
2022/07/23 13:11:46;;;;;;;;;;;;;;;;;;5048235;28;1717;-72
2022/07/23 13:14:12;;;;;;;;;;;;;;;;;;5050027;28;1597;-70
2022/07/23 13:16:38;;;;;;;;;;;;;;;;;;5054548;28;1564;-69
2022/07/23 13:19:03;;;;;;;;;;;;;;;;;;5048371;28;1890;-70
2022/07/23 13:21:28;;;;;;;;;;;;;;;;;;5061562;28;1844;-69
2022/07/23 13:23:54;;;;;;;;;;;;;;;;;;5059903;28;1428;-69
2022/07/23 13:26:19;;;;;;;;;;;;;;;;;;5059671;28;1475;-69
2022/07/23 13:28:44;;;;;;;;;;;;;;;;;;5052763;28;1672;-69
2022/07/23 13:31:09;;;;;;;;;;;;;;;;;;5052745;28;1275;-69
2022/07/23 13:33:35;;;;;;;;;;;;;;;;;;5049518;28;1311;-69
2022/07/23 13:36:00;;;;;;;;;;;;;;;;;;5055349;28;1329;-69
2022/07/23 13:38:26;;;;;;;;;;;;;;;;;;5053991;28;1968;-69
2022/07/23 13:40:52;;;;;;;;;;;;;;;;;;5051773;28;1339;-69
2022/07/23 13:43:19;;;;;;;;;;;;;;;;;;5055805;28;1340;-69
2022/07/23 13:45:45;;;;;;;;;;;;;;;;;;5052497;28;1243;-69
2022/07/23 13:48:11;;;;;;;;;;;;;;;;;;5055115;28;1361;-69
2022/07/23 13:50:37;;;;;;;;;;;;;;;;;;5051421;28;1251;-69
2022/07/23 13:53:03;;;;;;;;;;;;;;;;;;5049217;28;1642;-69
2022/07/23 13:55:28;;;;;;;;;;;;;;;;;;5048161;28;1230;-69
2022/07/23 13:57:53;;;;;;;;;;;;;;;;;;5050347;28;1511;-69
2022/07/23 14:00:19;;;;;;;;;;;;;;;;;;5054222;28;1902;-69
2022/07/23 14:02:44;;;;;;;;;;;;;;;;;;5037439;28;1231;-69
2022/07/23 14:05:10;;;;;;;;;;;;;;;;;;5056247;28;1175;-69
2022/07/23 14:07:35;;;;;;;;;;;;;;;;;;5054056;28;1300;-69
2022/07/23 14:10:01;;;;;;;;;;;;;;;;;;5050377;28;1504;-69
2022/07/23 14:12:26;;;;;;;;;;;;;;;;;;5054204;28;1598;-69
2022/07/23 14:14:52;;;;;;;;;;;;;;;;;;5056318;28;1570;-69
2022/07/23 14:17:17;;;;;;;;;;;;;;;;;;5055351;28;1338;-69
2022/07/23 14:19:42;;;;;;;;;;;;;;;;;;5055183;28;1897;-69
2022/07/23 14:22:08;;;;;;;;;;;;;;;;;;5053372;28;1235;-70
2022/07/23 14:24:33;;;;;;;;;;;;;;;;;;5049468;28;1310;-70
2022/07/23 14:26:59;;;;;;;;;;;;;;;;;;5048923;28;1335;-69
2022/07/23 14:29:24;;;;;;;;;;;;;;;;;;5052428;28;1235;-70
2022/07/23 14:31:49;;;;;;;;;;;;;;;;;;5052681;28;1232;-69
2022/07/23 14:34:15;;;;;;;;;;;;;;;;;;5049740;28;1270;-70
2022/07/23 14:36:40;;;;;;;;;;;;;;;;;;5048613;28;1373;-70
2022/07/23 14:39:08;;;;;;;;;;;;;;;;;;5048235;28;1894;-70
2022/07/23 14:41:33;;;;;;;;;;;;;;;;;;5049092;28;1307;-69
2022/07/23 14:43:58;;;;;;;;;;;;;;;;;;5049987;28;1235;-69
2022/07/23 14:46:24;;;;;;;;;;;;;;;;;;5051054;28;1413;-69
2022/07/23 14:48:49;;;;;;;;;;;;;;;;;;5054963;28;1349;-70
2022/07/23 14:51:14;;;;;;;;;;;;;;;;;;5050174;28;1550;-70
2022/07/23 14:53:39;;;;;;;;;;;;;;;;;;5051008;28;1319;-71
2022/07/23 14:56:05;;;;;;;;;;;;;;;;;;5051086;28;1361;-69
2022/07/23 14:58:30;;;;;;;;;;;;;;;;;;5053345;28;1902;-69
2022/07/23 15:00:55;;;;;;;;;;;;;;;;;;5054580;28;1254;-69
2022/07/23 15:03:20;;;;;;;;;;;;;;;;;;5053252;28;1290;-69
2022/07/23 15:05:46;;;;;;;;;;;;;;;;;;5053453;28;1327;-69
2022/07/23 15:08:11;;;;;;;;;;;;;;;;;;5052823;28;1235;-70
2022/07/23 15:10:36;;;;;;;;;;;;;;;;;;5052346;28;1313;-69
2022/07/23 15:13:01;;;;;;;;;;;;;;;;;;5050680;28;1543;-69
2022/07/23 15:15:26;;;;;;;;;;;;;;;;;;5048123;28;1350;-69
2022/07/23 15:17:51;;;;;;;;;;;;;;;;;;5053747;28;1345;-69
2022/07/23 15:20:17;;;;;;;;;;;;;;;;;;5047564;28;1951;-70
2022/07/23 15:22:44;;;;;;;;;;;;;;;;;;5053696;28;1409;-70
2022/07/23 15:25:09;;;;;;;;;;;;;;;;;;5052730;28;1282;-70
2022/07/23 15:27:35;;;;;;;;;;;;;;;;;;5045252;28;1266;-70
2022/07/23 15:30:00;;;;;;;;;;;;;;;;;;5054633;28;2020;-70
2022/07/23 15:32:26;;;;;;;;;;;;;;;;;;5049562;28;1972;-69
2022/07/23 15:34:51;;;;;;;;;;;;;;;;;;5060968;28;1919;-70
2022/07/23 15:37:17;;;;;;;;;;;;;;;;;;5054475;28;1436;-67
2022/07/23 15:39:42;;;;;;;;;;;;;;;;;;5052541;28;1969;-71
2022/07/23 15:42:07;;;;;;;;;;;;;;;;;;5061249;28;1510;-71
2022/07/23 15:44:32;;;;;;;;;;;;;;;;;;5056209;28;1080;-70
2022/07/23 15:46:58;;;;;;;;;;;;;;;;;;5050349;28;1298;-71
2022/07/23 15:49:23;;;;;;;;;;;;;;;;;;5031741;28;1558;-70
2022/07/23 15:51:48;;;;;;;;;;;;;;;;;;5050793;28;1751;-70
2022/07/23 15:54:13;;;;;;;;;;;;;;;;;;5055825;28;1700;-70
2022/07/23 15:56:38;;;;;;;;;;;;;;;;;;5051697;28;2117;-70
2022/07/23 15:59:04;;;;;;;;;;;;;;;;;;5052347;28;1894;-71
2022/07/23 16:01:29;;;;;;;;;;;;;;;;;;5046281;28;1694;-70
2022/07/23 16:03:54;;;;;;;;;;;;;;;;;;5049540;28;1987;-70
2022/07/23 16:06:20;;;;;;;;;;;;;;;;;;5047091;28;1800;-71
2022/07/23 16:08:45;;;;;;;;;;;;;;;;;;5056388;28;1681;-70
2022/07/23 16:11:10;;;;;;;;;;;;;;;;;;5054289;28;1767;-71
2022/07/23 16:13:35;;;;;;;;;;;;;;;;;;5050762;28;1727;-71
2022/07/23 16:16:00;;;;;;;;;;;;;;;;;;5053301;28;1665;-71
2022/07/23 16:18:27;;;;;;;;;;;;;;;;;;5050120;28;1965;-72
2022/07/23 16:20:52;;;;;;;;;;;;;;;;;;5055678;28;1756;-71
2022/07/23 16:23:17;;;;;;;;;;;;;;;;;;5056019;28;1875;-71
2022/07/23 16:25:43;;;;;;;;;;;;;;;;;;5050064;28;1727;-72
2022/07/23 16:28:08;;;;;;;;;;;;;;;;;;5054304;28;1704;-71
2022/07/23 16:30:34;;;;;;;;;;;;;;;;;;5055691;28;1716;-71
2022/07/23 16:33:00;;;;;;;;;;;;;;;;;;5045897;28;1823;-71
2022/07/23 16:35:25;;;;;;;;;;;;;;;;;;5049702;28;1645;-72
2022/07/23 16:37:51;;;;;;;;;;;;;;;;;;5053653;28;2050;-71
2022/07/23 16:40:16;;;;;;;;;;;;;;;;;;5056134;28;1901;-71
2022/07/23 16:42:41;;;;;;;;;;;;;;;;;;5051449;28;1735;-71
2022/07/23 16:45:07;;;;;;;;;;;;;;;;;;5056686;28;1744;-71
2022/07/23 16:47:32;;;;;;;;;;;;;;;;;;5054434;28;1263;-71
2022/07/23 16:49:57;;;;;;;;;;;;;;;;;;5056016;28;1785;-71
2022/07/23 16:52:22;;;;;;;;;;;;;;;;;;5052327;28;1676;-71
2022/07/23 16:54:48;;;;;;;;;;;;;;;;;;5059118;28;1763;-71
2022/07/23 16:57:13;;;;;;;;;;;;;;;;;;5056472;28;1834;-71
2022/07/23 16:59:38;;;;;;;;;;;;;;;;;;5054048;28;2029;-71
2022/07/23 17:02:04;;;;;;;;;;;;;;;;;;5053976;28;1708;-70